Time;durP1;ratioP1;P1;durP2;ratioP2;P2;SDS_P1;SDS_P2;PMS_P1;PMS_P2;Temp;Humidity;BMP_temperature;BMP_pressure;BME280_temperature;BME280_humidity;BME280_pressure;Samples;Min_cycle;Max_cycle;Signal;HPM_P1;HPM_P2
2024/01/03 00:00:06;;;;;;;3.55;2.00;;;;;;;10.50;63.90;98685.41;5019725;28;20079;-42
2024/01/03 00:02:32;;;;;;;3.20;1.30;;;;;;;10.48;63.91;98679.47;5021153;28;20037;-42
2024/01/03 00:04:58;;;;;;;56.50;20.15;;;;;;;10.48;63.93;98671.56;5020300;28;20048;-42
2024/01/03 00:07:23;;;;;;;4.88;2.30;;;;;;;10.55;63.67;98670.03;5021867;28;20033;-45
2024/01/03 00:09:56;;;;;;;235.27;80.50;;;;;;;10.61;63.65;98674.75;5022245;28;20103;-42
2024/01/03 00:12:25;;;;;;;7.32;1.20;;;;;;;10.64;63.58;98669.22;5015990;28;20053;-42
2024/01/03 00:14:51;;;;;;;12.77;2.13;;;;;;;10.59;63.60;98665.34;5016853;28;20043;-42
2024/01/03 00:17:17;;;;;;;1999.90;999.90;;;;;;;10.68;63.20;98665.31;5021885;28;20403;-43
2024/01/03 00:19:42;;;;;;;6.90;1.48;;;;;;;10.66;63.45;98667.25;5020507;28;20037;-43
2024/01/03 00:22:11;;;;;;;4.50;2.42;;;;;;;10.61;63.50;98658.97;5023071;28;20037;-43
2024/01/03 00:24:45;;;;;;;4.18;2.17;;;;;;;10.66;63.40;98661.97;5020830;28;20025;-42
2024/01/03 00:27:10;;;;;;;10.77;3.05;;;;;;;10.62;63.61;98649.25;5018914;28;20108;-43
2024/01/03 00:29:53;;;;;;;1999.90;999.90;;;;;;;10.65;63.47;98649.00;5019213;28;20677;-43
2024/01/03 00:32:19;;;;;;;;;;;;;;;10.63;63.87;98650.94;5019995;28;20025;-41
2024/01/03 00:34:45;;;;;;;8.60;1.77;;;;;;;10.60;63.72;98646.78;5024049;28;20367;-43
2024/01/03 00:37:26;;;;;;;4.20;1.90;;;;;;;10.54;64.08;98639.44;5020414;28;20037;-46
2024/01/03 00:39:54;;;;;;;4.25;2.50;;;;;;;10.51;64.17;98634.50;5016912;28;20025;-43
2024/01/03 00:42:19;;;;;;;9.52;4.25;;;;;;;10.50;64.11;98638.09;5020727;28;20064;-44
2024/01/03 00:44:45;;;;;;;3.75;1.80;;;;;;;10.42;64.60;98638.78;5016850;28;20037;-41
2024/01/03 00:47:11;;;;;;;4.40;1.52;;;;;;;10.41;64.62;98631.88;5018585;28;20041;-41
2024/01/03 00:49:37;;;;;;;3.35;1.45;;;;;;;10.42;64.62;98637.94;5019430;28;20029;-42
2024/01/03 00:52:03;;;;;;;2.70;1.45;;;;;;;10.47;64.60;98638.34;5020773;28;20036;-42
2024/01/03 00:54:30;;;;;;;3.33;1.58;;;;;;;10.42;64.80;98632.69;5020928;28;20436;-43
2024/01/03 00:56:55;;;;;;;2.55;1.40;;;;;;;10.36;65.06;98634.84;5022297;28;20033;-42
2024/01/03 00:59:21;;;;;;;1.60;0.98;;;;;;;10.47;64.62;98633.09;5022389;28;20031;-43
2024/01/03 01:01:47;;;;;;;2.40;1.45;;;;;;;10.55;64.52;98627.97;5014954;28;20426;-43
2024/01/03 01:04:15;;;;;;;3.03;2.20;;;;;;;10.60;64.22;98625.75;5024233;28;20092;-44
2024/01/03 01:06:43;;;;;;;2.65;2.17;;;;;;;10.61;64.14;98624.78;5018935;28;20110;-44
2024/01/03 01:09:09;;;;;;;1.92;1.40;;;;;;;10.63;64.19;98616.72;5018005;28;20036;-42
2024/01/03 01:11:37;;;;;;;3.22;1.70;;;;;;;10.68;64.07;98620.59;5023985;28;20037;-44
2024/01/03 01:14:03;;;;;;;3.97;2.20;;;;;;;10.71;64.00;98613.41;5017277;28;20021;-45
2024/01/03 01:16:28;;;;;;;2.75;1.90;;;;;;;10.70;64.03;98614.38;5021245;28;20037;-45
2024/01/03 01:18:54;;;;;;;2.97;1.70;;;;;;;10.68;64.02;98612.72;5017775;28;20419;-43
2024/01/03 01:21:19;;;;;;;2.75;1.83;;;;;;;10.73;64.11;98608.81;5023087;28;20037;-44
2024/01/03 01:23:44;;;;;;;2.65;1.90;;;;;;;10.68;64.07;98602.19;5017725;28;20030;-44
2024/01/03 01:26:10;;;;;;;3.70;1.90;;;;;;;10.64;64.20;98603.47;5019196;28;20068;-43
2024/01/03 01:28:35;;;;;;;2.55;1.63;;;;;;;10.64;64.45;98606.09;5034012;28;20697;-43
2024/01/03 01:31:00;;;;;;;2.92;1.20;;;;;;;10.63;64.50;98614.94;5013812;28;20049;-47
2024/01/03 01:33:26;;;;;;;2.97;1.50;;;;;;;10.65;64.56;98606.91;5022116;28;20026;-46
2024/01/03 01:35:51;;;;;;;2.65;1.10;;;;;;;10.70;64.56;98598.59;5018333;28;20037;-43
2024/01/03 01:38:16;;;;;;;1.98;0.90;;;;;;;10.77;64.19;98604.94;5018114;28;20124;-44
2024/01/03 01:40:42;;;;;;;3.30;0.93;;;;;;;10.74;64.33;98602.59;5021148;28;20438;-46
2024/01/03 01:43:08;;;;;;;2.80;1.17;;;;;;;10.76;64.62;98601.47;5024803;28;20043;-44
2024/01/03 01:45:33;;;;;;;1.58;0.80;;;;;;;10.71;64.59;98590.56;5023425;28;20061;-44
2024/01/03 01:48:00;;;;;;;2.13;0.80;;;;;;;10.81;64.17;98587.91;5021328;28;20116;-43
2024/01/03 01:50:25;;;;;;;2.63;0.98;;;;;;;10.81;64.39;98590.53;5021888;28;20025;-45
2024/01/03 01:52:52;;;;;;;1.88;0.98;;;;;;;10.81;64.26;98586.09;5021299;28;20405;-47
2024/01/03 01:55:19;;;;;;;3.60;1.30;;;;;;;10.82;64.33;98584.28;5017401;28;20467;-43
2024/01/03 01:57:45;;;;;;;3.00;1.70;;;;;;;10.75;64.49;98578.78;5020507;28;20412;-45
2024/01/03 02:00:12;;;;;;;2.22;1.33;;;;;;;10.71;64.97;98576.56;5019587;28;20022;-44
2024/01/03 02:02:37;;;;;;;3.60;1.23;;;;;;;10.68;65.07;98581.16;5020723;28;20495;-45
2024/01/03 02:05:03;;;;;;;3.53;1.33;;;;;;;10.70;65.19;98569.66;5021638;28;20032;-47
2024/01/03 02:07:30;;;;;;;1.20;0.90;;;;;;;10.74;65.21;98568.41;5015885;28;20026;-45
2024/01/03 02:09:56;;;;;;;3.03;1.20;;;;;;;10.70;65.25;98574.91;5020046;28;20095;-43
2024/01/03 02:12:28;;;;;;;2.33;0.70;;;;;;;10.75;65.23;98575.31;5018625;28;20060;-44
2024/01/03 02:14:54;;;;;;;3.78;1.27;;;;;;;10.67;65.41;98571.59;5020132;28;20022;-43
2024/01/03 02:17:20;;;;;;;1.42;0.90;;;;;;;10.73;65.42;98572.00;5025541;28;20037;-43
2024/01/03 02:19:46;;;;;;;1.48;0.80;;;;;;;10.77;65.08;98568.94;5026644;28;20387;-41
2024/01/03 02:22:11;;;;;;;1.45;0.93;;;;;;;10.81;65.09;98565.06;5022713;28;21259;-45
2024/01/03 02:24:36;;;;;;;3.25;1.10;;;;;;;10.81;65.27;98572.13;5029774;28;20021;-42
2024/01/03 02:27:02;;;;;;;2.70;1.23;;;;;;;10.82;65.29;98561.44;5026549;28;20469;-43
2024/01/03 02:29:27;;;;;;;1.77;1.10;;;;;;;10.80;65.37;98562.59;5028254;28;20048;-44
2024/01/03 02:31:53;;;;;;;1.60;0.98;;;;;;;10.73;65.98;98550.97;5025348;28;20072;-45
2024/01/03 02:34:18;;;;;;;2.67;1.02;;;;;;;10.78;65.70;98561.88;5023750;28;20032;-44
2024/01/03 02:36:47;;;;;;;1.73;0.90;;;;;;;10.93;65.14;98568.34;5024750;28;20478;-45
2024/01/03 02:39:13;;;;;;;2.83;1.30;;;;;;;10.97;64.90;98561.81;5027235;28;20082;-45
2024/01/03 02:41:38;;;;;;;3.20;1.33;;;;;;;11.06;64.49;98561.91;5023599;28;20040;-44
2024/01/03 02:44:04;;;;;;;4.25;1.10;;;;;;;11.14;64.25;98564.63;5023375;28;20025;-45
2024/01/03 02:46:29;;;;;;;3.25;1.95;;;;;;;11.18;64.18;98566.00;5025066;28;20049;-44
2024/01/03 02:48:54;;;;;;;2.47;1.30;;;;;;;11.21;64.00;98564.88;5027867;28;20028;-43
2024/01/03 02:51:21;;;;;;;3.30;1.33;;;;;;;11.22;64.09;98558.63;5025633;28;20120;-44
2024/01/03 02:53:46;;;;;;;3.45;1.33;;;;;;;11.22;64.03;98564.75;5025798;28;20037;-45
2024/01/03 02:56:12;;;;;;;1.73;0.95;;;;;;;11.24;63.96;98560.19;5027078;28;20037;-44
2024/01/03 02:58:37;;;;;;;2.80;1.20;;;;;;;11.25;64.02;98564.47;5029346;28;20044;-46
2024/01/03 03:01:06;;;;;;;3.33;1.50;;;;;;;11.32;63.96;98555.97;5025778;28;20036;-44
2024/01/03 03:03:32;;;;;;;2.25;1.35;;;;;;;11.27;63.93;98559.03;5027789;28;20029;-45
2024/01/03 03:05:57;;;;;;;2.95;1.33;;;;;;;11.27;64.01;98559.84;5023416;28;20044;-41
2024/01/03 03:08:23;;;;;;;2.55;1.38;;;;;;;11.29;63.90;98560.53;5027802;28;20100;-42
2024/01/03 03:10:49;;;;;;;1.73;0.90;;;;;;;11.34;63.97;98559.28;5030404;28;20132;-42
2024/01/03 03:13:14;;;;;;;3.55;1.42;;;;;;;11.30;63.92;98556.13;5026875;28;20030;-43
2024/01/03 03:15:40;;;;;;;2.78;1.33;;;;;;;11.33;63.90;98552.34;5028420;28;20673;-42
2024/01/03 03:18:07;;;;;;;2.60;1.60;;;;;;;11.34;63.88;98554.03;5027344;28;20025;-43
2024/01/03 03:20:33;;;;;;;2.92;1.65;;;;;;;11.35;63.80;98560.94;5028274;28;20026;-43
2024/01/03 03:22:58;;;;;;;2.67;1.60;;;;;;;11.38;63.68;98558.03;5019830;28;20036;-42
2024/01/03 03:25:23;;;;;;;3.38;1.48;;;;;;;11.39;63.33;98557.84;5017157;28;20036;-42
2024/01/03 03:27:49;;;;;;;3.45;2.03;;;;;;;11.38;63.76;98561.47;5027649;28;20056;-42
2024/01/03 03:30:15;;;;;;;4.47;1.85;;;;;;;11.41;63.59;98566.44;5025866;28;20459;-43
2024/01/03 03:32:44;;;;;;;3.15;1.92;;;;;;;11.44;63.56;98565.31;5028163;28;20531;-42
2024/01/03 03:35:12;;;;;;;5.28;1.95;;;;;;;11.46;63.68;98565.19;5024318;28;20037;-42
2024/01/03 03:37:38;;;;;;;2.47;1.45;;;;;;;11.49;63.44;98557.81;5028453;28;20094;-43
2024/01/03 03:40:04;;;;;;;5.88;2.38;;;;;;;11.44;63.51;98560.03;5020761;28;20034;-42
2024/01/03 03:42:30;;;;;;;4.20;2.30;;;;;;;11.45;63.66;98561.72;5029099;28;20044;-39
2024/01/03 03:44:55;;;;;;;4.55;2.58;;;;;;;11.45;63.49;98556.44;5028196;28;20443;-40
2024/01/03 03:47:20;;;;;;;5.50;3.03;;;;;;;11.46;63.37;98563.38;5024711;28;20041;-40
2024/01/03 03:49:46;;;;;;;5.45;2.30;;;;;;;11.51;63.16;98563.75;5029168;28;20040;-40
2024/01/03 03:52:11;;;;;;;3.60;1.90;;;;;;;11.52;63.29;98562.78;5027701;28;20037;-40
2024/01/03 03:54:36;;;;;;;20.35;9.25;;;;;;;11.54;63.31;98555.56;5028648;28;20083;-39
2024/01/03 03:57:02;;;;;;;18.95;9.88;;;;;;;11.51;63.25;98553.22;5019197;28;20120;-41
2024/01/03 03:59:27;;;;;;;7.85;3.85;;;;;;;11.36;64.26;98547.63;5027932;28;20052;-40
2024/01/03 04:01:54;;;;;;;3.75;1.98;;;;;;;11.34;64.40;98543.47;5026719;28;20026;-40
2024/01/03 04:04:20;;;;;;;4.53;1.63;;;;;;;11.34;64.41;98554.03;5028148;28;20223;-41
2024/01/03 04:06:45;;;;;;;3.95;2.38;;;;;;;11.35;64.31;98553.03;5026091;28;20029;-42
2024/01/03 04:09:11;;;;;;;4.47;2.33;;;;;;;11.29;64.96;98552.66;5022394;28;20037;-40
2024/01/03 04:11:43;;;;;;;4.18;2.13;;;;;;;11.39;64.98;98549.16;5023708;28;20033;-40
2024/01/03 04:14:10;;;;;;;5.70;2.40;;;;;;;11.34;65.21;98554.03;5024703;28;20017;-42
2024/01/03 04:16:36;;;;;;;4.18;2.63;;;;;;;11.35;65.20;98555.69;5034288;28;20050;-41
2024/01/03 04:19:02;;;;;;;4.70;2.67;;;;;;;11.26;66.17;98550.34;5024471;28;20033;-41
2024/01/03 04:21:29;;;;;;;3.25;1.73;;;;;;;11.38;66.18;98560.66;5022849;28;20045;-40
2024/01/03 04:23:54;;;;;;;5.03;2.17;;;;;;;11.24;67.13;98556.69;5023531;28;20037;-42
2024/01/03 04:26:19;;;;;;;4.20;1.88;;;;;;;11.27;67.13;98551.97;5018111;28;20075;-40
2024/01/03 04:28:45;;;;;;;5.45;2.25;;;;;;;11.20;67.50;98552.69;5020845;28;20450;-40
2024/01/03 04:31:10;;;;;;;3.13;1.67;;;;;;;11.22;68.08;98556.84;5020562;28;20033;-42
2024/01/03 04:33:35;;;;;;;2.20;1.08;;;;;;;11.21;68.63;98554.34;5024732;28;20041;-41
2024/01/03 04:36:01;;;;;;;4.78;1.98;;;;;;;11.11;69.12;98552.59;5025200;28;20041;-40
2024/01/03 04:38:26;;;;;;;3.15;1.50;;;;;;;10.96;70.07;98548.78;5034869;28;20037;-41
2024/01/03 04:40:52;;;;;;;2.25;1.00;;;;;;;11.12;69.56;98556.06;5019763;28;20112;-42
2024/01/03 04:43:17;;;;;;;3.38;0.82;;;;;;;11.07;69.95;98553.06;5026345;28;20033;-41
2024/01/03 04:45:42;;;;;;;1.30;0.60;;;;;;;11.14;70.13;98551.47;5023284;28;20603;-44
2024/01/03 04:48:08;;;;;;;1.80;0.70;;;;;;;11.21;69.66;98549.94;5023437;28;20034;-44
2024/01/03 04:50:33;;;;;;;1.77;0.45;;;;;;;11.27;69.76;98551.97;5022316;28;20026;-43
2024/01/03 04:52:59;;;;;;;3.25;0.50;;;;;;;11.35;69.34;98555.69;5023848;28;20045;-45
2024/01/03 04:55:25;;;;;;;0.95;0.50;;;;;;;11.42;69.50;98554.09;5019632;28;20032;-45
2024/01/03 04:57:51;;;;;;;1.67;0.80;;;;;;;11.44;69.32;98550.34;5022699;28;20864;-44
2024/01/03 05:00:16;;;;;;;0.80;0.40;;;;;;;11.40;69.56;98553.44;5024531;28;20029;-43
2024/01/03 05:02:42;;;;;;;4.47;0.95;;;;;;;11.38;69.67;98560.66;5019764;28;20060;-43
2024/01/03 05:05:07;;;;;;;1.15;0.30;;;;;;;11.39;69.57;98562.31;5021155;28;20017;-43
2024/01/03 05:07:34;;;;;;;1.65;0.75;;;;;;;11.43;69.71;98567.13;5019150;28;20036;-41
2024/01/03 05:10:00;;;;;;;2.13;0.50;;;;;;;11.52;69.28;98568.06;5025455;28;20492;-41
2024/01/03 05:12:26;;;;;;;1.20;0.32;;;;;;;11.49;69.69;98562.25;5023536;28;20033;-43
2024/01/03 05:14:51;;;;;;;0.30;0.28;;;;;;;11.73;69.04;98559.88;5017628;28;20064;-40
2024/01/03 05:17:17;;;;;;;1.55;0.50;;;;;;;11.62;68.38;98557.47;5020622;28;20037;-42
2024/01/03 05:19:43;;;;;;;2.22;0.63;;;;;;;11.71;68.69;98558.38;5026262;28;20084;-41
2024/01/03 05:22:08;;;;;;;1.38;0.68;;;;;;;11.69;68.95;98568.22;5023020;28;20029;-40
2024/01/03 05:24:34;;;;;;;2.45;0.60;;;;;;;11.55;69.09;98567.75;5025375;28;20391;-40
2024/01/03 05:27:00;;;;;;;3.72;0.50;;;;;;;11.78;68.26;98562.06;5025117;28;20129;-43
2024/01/03 05:29:25;;;;;;;1.02;0.60;;;;;;;11.79;68.23;98573.44;5023019;28;20483;-40
2024/01/03 05:31:51;;;;;;;0.82;0.55;;;;;;;11.84;68.07;98579.91;5016690;28;20037;-41
2024/01/03 05:34:16;;;;;;;1.35;0.43;;;;;;;11.79;68.26;98582.16;5019407;28;20116;-40
2024/01/03 05:36:42;;;;;;;1.50;0.60;;;;;;;11.89;67.69;98579.44;5020343;28;20537;-42
2024/01/03 05:39:07;;;;;;;4.43;2.22;;;;;;;11.94;67.72;98589.53;5025235;28;20032;-40
2024/01/03 05:41:33;;;;;;;2.63;1.30;;;;;;;11.96;67.58;98585.75;5026435;28;20095;-40
2024/01/03 05:43:58;;;;;;;4.68;2.38;;;;;;;11.93;67.57;98588.72;5023159;28;20033;-43
2024/01/03 05:46:24;;;;;;;3.08;0.80;;;;;;;11.90;67.32;98587.19;5023002;28;20029;-40
2024/01/03 05:48:49;;;;;;;1.48;0.68;;;;;;;11.92;67.63;98583.59;5029279;28;20582;-40
2024/01/03 05:51:16;;;;;;;0.65;0.45;;;;;;;11.78;67.97;98593.66;5024082;28;20113;-40
2024/01/03 05:53:47;;;;;;;2.58;0.55;;;;;;;11.79;68.03;98584.78;5028447;28;20033;-40
2024/01/03 05:56:13;;;;;;;1.92;0.98;;;;;;;11.74;67.72;98587.03;5027448;28;20038;-42
2024/01/03 05:58:38;;;;;;;2.80;1.30;;;;;;;11.73;67.91;98591.47;5025782;28;20116;-40
2024/01/03 06:01:04;;;;;;;0.60;0.40;;;;;;;11.69;68.10;98595.38;5025532;28;20129;-43
2024/01/03 06:03:29;;;;;;;1.95;0.45;;;;;;;11.61;68.56;98594.47;5027295;28;20025;-41
2024/01/03 06:05:55;;;;;;;2.50;0.82;;;;;;;11.66;68.40;98600.94;5011710;28;20056;-41
2024/01/03 06:08:20;;;;;;;3.85;0.50;;;;;;;11.60;68.28;98598.91;5026293;28;20033;-40
2024/01/03 06:10:45;;;;;;;1.20;0.55;;;;;;;11.65;67.70;98594.00;5026902;28;20029;-41
2024/01/03 06:13:14;;;;;;;2.38;0.45;;;;;;;11.71;67.30;98608.44;5022242;28;20033;-42
2024/01/03 06:15:40;;;;;;;2.85;0.55;;;;;;;11.70;67.12;98606.78;5027258;28;20116;-40
2024/01/03 06:18:05;;;;;;;1.75;0.60;;;;;;;11.68;66.49;98620.06;5027857;28;21358;-41
2024/01/03 06:20:31;;;;;;;4.80;0.90;;;;;;;11.59;66.42;98621.78;5023084;28;20033;-41
2024/01/03 06:22:56;;;;;;;2.47;0.52;;;;;;;11.82;65.76;98616.13;5026026;28;20034;-40
2024/01/03 06:25:22;;;;;;;1.52;0.60;;;;;;;11.78;65.90;98622.66;5026952;28;20530;-43
2024/01/03 06:27:47;;;;;;;2.28;0.50;;;;;;;11.61;65.80;98624.28;5025606;28;20033;-39
2024/01/03 06:30:13;;;;;;;2.70;0.52;;;;;;;11.68;65.82;98627.97;5024489;28;20108;-40
2024/01/03 06:32:38;;;;;;;1.02;0.40;;;;;;;11.74;66.01;98626.53;5038620;28;20111;-42
2024/01/03 06:35:05;;;;;;;2.75;0.40;;;;;;;11.74;65.94;98632.66;5028680;28;20021;-42
2024/01/03 06:37:30;;;;;;;1.70;0.60;;;;;;;11.68;65.83;98630.59;5024105;28;20045;-41
2024/01/03 06:39:56;;;;;;;1.73;0.60;;;;;;;11.77;65.81;98643.88;5023665;28;20065;-41
2024/01/03 06:42:21;;;;;;;1.15;0.40;;;;;;;11.73;65.93;98645.97;5022984;28;20037;-40
2024/01/03 06:44:46;;;;;;;3.22;0.93;;;;;;;11.72;65.88;98631.97;5024373;28;20021;-41
2024/01/03 06:47:12;;;;;;;3.92;0.90;;;;;;;11.81;65.41;98646.06;5024306;28;20618;-40
2024/01/03 06:49:37;;;;;;;6.55;0.93;;;;;;;11.82;65.38;98641.63;5023837;28;20034;-40
2024/01/03 06:52:03;;;;;;;2.53;0.40;;;;;;;11.83;65.16;98646.75;5026442;28;20525;-40
2024/01/03 06:54:29;;;;;;;4.07;0.93;;;;;;;11.82;65.29;98653.00;5021807;28;20022;-41
2024/01/03 06:56:54;;;;;;;3.58;0.82;;;;;;;11.86;65.12;98649.09;5026650;28;20030;-40
2024/01/03 06:59:20;;;;;;;3.40;0.63;;;;;;;11.93;65.06;98653.75;5025153;28;20061;-40
2024/01/03 07:01:45;;;;;;;6.90;1.08;;;;;;;11.82;65.30;98657.44;5025067;28;20029;-40
2024/01/03 07:04:11;;;;;;;3.33;0.50;;;;;;;11.79;65.09;98655.09;5024991;28;20375;-42
2024/01/03 07:06:36;;;;;;;1.42;0.50;;;;;;;11.86;65.12;98654.38;5024285;28;20030;-42
2024/01/03 07:09:02;;;;;;;2.47;0.70;;;;;;;11.98;64.97;98662.06;5027958;28;20026;-45
2024/01/03 07:11:27;;;;;;;2.10;1.00;;;;;;;11.97;64.82;98670.94;5025667;28;20037;-43
2024/01/03 07:13:53;;;;;;;3.35;1.00;;;;;;;11.88;64.94;98668.19;5018716;28;20199;-46
2024/01/03 07:16:18;;;;;;;5.05;0.65;;;;;;;11.87;65.21;98671.81;5017116;28;20033;-42
2024/01/03 07:18:44;;;;;;;3.40;0.85;;;;;;;11.83;65.47;98675.75;5020719;28;20025;-43
2024/01/03 07:21:09;;;;;;;2.28;0.77;;;;;;;11.87;65.22;98681.53;5030265;28;20033;-42
2024/01/03 07:23:35;;;;;;;4.47;1.35;;;;;;;11.87;65.32;98682.34;5034397;28;20368;-42
2024/01/03 07:26:00;;;;;;;8.00;1.08;;;;;;;11.99;64.87;98685.66;5023476;28;20029;-43
2024/01/03 07:28:25;;;;;;;6.88;1.63;;;;;;;11.96;65.03;98693.81;5024541;28;20036;-43
2024/01/03 07:30:51;;;;;;;4.45;1.42;;;;;;;12.03;64.99;98689.66;5022108;28;20465;-43
2024/01/03 07:33:16;;;;;;;5.53;1.27;;;;;;;11.97;65.10;98692.84;5025968;28;20041;-42
2024/01/03 07:35:42;;;;;;;4.15;1.10;;;;;;;11.90;65.27;98687.34;5018065;28;20038;-42
2024/01/03 07:38:07;;;;;;;3.35;0.80;;;;;;;11.95;65.20;98688.72;5023256;28;20029;-44
2024/01/03 07:40:34;;;;;;;2.72;0.85;;;;;;;11.93;65.42;98695.94;5024238;28;20052;-42
2024/01/03 07:42:59;;;;;;;4.97;0.88;;;;;;;11.82;65.94;98692.53;5025920;28;20041;-44
2024/01/03 07:45:24;;;;;;;2.17;1.20;;;;;;;11.84;65.61;98695.84;5026235;28;20059;-43
2024/01/03 07:47:50;;;;;;;2.97;1.00;;;;;;;11.69;66.15;98695.50;5028850;28;20048;-43
2024/01/03 07:50:16;;;;;;;5.10;1.60;;;;;;;11.61;66.61;98702.47;5025018;28;20099;-43
2024/01/03 07:52:44;;;;;;;3.70;1.20;;;;;;;11.79;66.02;98692.81;5028262;28;20048;-43
2024/01/03 07:55:10;;;;;;;3.63;1.08;;;;;;;11.83;65.87;98695.97;5030715;28;20103;-42
2024/01/03 07:57:35;;;;;;;2.55;0.90;;;;;;;11.81;66.24;98693.50;5029035;28;20132;-42
2024/01/03 08:00:01;;;;;;;4.00;1.15;;;;;;;11.71;66.30;98704.09;5027869;28;20036;-42
2024/01/03 08:02:27;;;;;;;4.55;1.00;;;;;;;11.87;65.91;98698.16;5025854;28;20025;-41
2024/01/03 08:04:52;;;;;;;1.75;0.52;;;;;;;11.85;65.78;98700.16;5027146;28;20112;-43
2024/01/03 08:07:17;;;;;;;2.65;0.70;;;;;;;11.75;65.98;98699.34;5032011;28;20099;-42
2024/01/03 08:09:43;;;;;;;1.83;0.77;;;;;;;11.84;66.13;98702.91;5025454;28;20051;-44
2024/01/03 08:12:11;;;;;;;1.73;0.85;;;;;;;11.93;65.49;98706.47;5027901;28;20494;-44
2024/01/03 08:14:36;;;;;;;1.83;0.82;;;;;;;11.91;65.74;98704.00;5026075;28;20136;-42
2024/01/03 08:17:03;;;;;;;5.25;0.80;;;;;;;11.86;65.87;98707.06;5027616;28;20112;-43
2024/01/03 08:19:28;;;;;;;7.72;1.17;;;;;;;11.94;65.78;98702.84;5024058;28;20029;-41
2024/01/03 08:21:54;;;;;;;3.47;0.80;;;;;;;11.93;66.05;98695.94;5025114;28;20402;-44
2024/01/03 08:24:20;;;;;;;2.85;0.70;;;;;;;12.05;65.80;98707.94;5027086;28;20038;-44
2024/01/03 08:26:46;;;;;;;1.42;0.80;;;;;;;12.09;65.44;98704.06;5027702;28;20088;-44
2024/01/03 08:29:13;;;;;;;7.20;2.67;;;;;;;12.16;65.46;98706.91;5026376;28;20033;-41
2024/01/03 08:31:38;;;;;;;4.07;0.98;;;;;;;12.06;65.55;98711.44;5027813;28;20116;-43
2024/01/03 08:34:04;;;;;;;4.05;0.80;;;;;;;12.13;65.63;98713.31;5028026;28;20160;-47
2024/01/03 08:36:43;;;;;;;3.95;1.00;;;;;;;12.13;65.75;98705.41;5023544;28;20230;-42
2024/01/03 08:39:09;;;;;;;6.97;1.27;;;;;;;12.12;65.63;98709.03;5027786;28;20026;-42
2024/01/03 08:41:34;;;;;;;2.30;0.95;;;;;;;12.24;65.61;98708.81;5028222;28;20040;-45
2024/01/03 08:44:02;;;;;;;8.57;1.90;;;;;;;12.19;65.68;98712.72;5029909;28;20108;-45
2024/01/03 08:46:43;;;;;;;7.30;2.83;;;;;;;12.16;65.40;98713.03;5029021;28;20395;-44
2024/01/03 08:49:08;;;;;;;9.82;3.67;;;;;;;12.28;65.30;98716.28;5023930;28;20047;-46
2024/01/03 08:51:34;;;;;;;7.95;1.63;;;;;;;12.17;65.34;98714.69;5022951;28;20454;-44
2024/01/03 08:53:59;;;;;;;5.80;1.52;;;;;;;12.20;65.43;98714.38;5027201;28;20034;-42
2024/01/03 08:56:25;;;;;;;5.05;1.40;;;;;;;12.25;65.14;98723.66;5028972;28;20033;-45
2024/01/03 08:58:51;;;;;;;1.73;0.80;;;;;;;12.16;65.63;98723.59;5012439;28;20495;-47
2024/01/03 09:01:20;;;;;;;14.32;6.07;;;;;;;12.23;65.45;98721.19;5028215;28;20156;-47
2024/01/03 09:03:47;;;;;;;4.05;0.80;;;;;;;11.98;66.24;98717.41;5028957;28;20044;-45
2024/01/03 09:06:22;;;;;;;5.15;1.17;;;;;;;12.02;65.96;98716.19;5022884;28;20030;-43
2024/01/03 09:08:50;;;;;;;2.92;0.80;;;;;;;11.98;66.29;98714.78;5027819;28;20674;-43
2024/01/03 09:11:18;;;;;;;3.83;1.25;;;;;;;11.95;65.95;98721.16;5022847;28;20037;-42
2024/01/03 09:13:43;;;;;;;4.93;1.40;;;;;;;11.79;66.10;98719.16;5026930;28;20056;-45
2024/01/03 09:16:12;;;;;;;4.38;1.90;;;;;;;11.96;65.91;98711.44;5027958;28;20117;-43
2024/01/03 09:18:37;;;;;;;10.65;2.55;;;;;;;11.85;66.02;98717.75;5028936;28;20037;-41
2024/01/03 09:21:04;;;;;;;3.58;1.40;;;;;;;11.93;66.11;98706.47;5027720;28;20040;-45
2024/01/03 09:23:30;;;;;;;3.60;1.40;;;;;;;11.98;65.76;98709.50;5027408;28;20029;-42
2024/01/03 09:25:55;;;;;;;6.25;1.70;;;;;;;11.88;65.84;98722.72;5021553;28;20164;-41
2024/01/03 09:28:25;;;;;;;4.03;1.00;;;;;;;11.96;65.67;98714.09;5025812;28;20124;-41
2024/01/03 09:30:51;;;;;;;3.70;0.85;;;;;;;12.05;65.08;98715.84;5020878;28;20045;-41
2024/01/03 09:33:17;;;;;;;7.00;0.65;;;;;;;12.04;64.99;98724.75;5021748;28;20033;-41
2024/01/03 09:35:43;;;;;;;5.05;0.85;;;;;;;12.13;64.99;98723.03;5021211;28;20037;-41
2024/01/03 09:38:09;;;;;;;3.85;0.98;;;;;;;12.03;65.13;98720.44;5019865;28;20040;-42
2024/01/03 09:40:35;;;;;;;3.90;0.80;;;;;;;12.20;64.65;98727.56;5026967;28;20032;-42
2024/01/03 09:43:04;;;;;;;3.55;0.50;;;;;;;12.39;64.43;98732.88;5026539;28;20112;-41
2024/01/03 09:45:30;;;;;;;3.05;0.95;;;;;;;12.29;64.48;98743.47;5024450;28;20028;-41
2024/01/03 09:47:56;;;;;;;2.78;0.65;;;;;;;12.18;64.60;98728.69;5025575;28;20079;-42
2024/01/03 09:50:22;;;;;;;2.75;0.80;;;;;;;12.30;64.53;98734.59;5027430;28;20470;-43
2024/01/03 09:52:48;;;;;;;3.40;0.65;;;;;;;12.37;64.39;98735.63;5025298;28;20029;-41
2024/01/03 09:55:14;;;;;;;4.95;1.20;;;;;;;12.26;64.24;98738.50;5026297;28;20159;-42
2024/01/03 09:57:40;;;;;;;3.97;1.20;;;;;;;12.34;64.25;98738.56;5022340;28;20045;-43
2024/01/03 10:00:07;;;;;;;3.35;0.88;;;;;;;12.34;64.43;98741.22;5023972;28;20036;-42
2024/01/03 10:02:32;;;;;;;5.47;0.80;;;;;;;12.31;64.21;98749.44;5026692;28;20025;-41
2024/01/03 10:04:58;;;;;;;1.60;0.60;;;;;;;12.50;63.86;98735.28;5018175;28;20098;-42
2024/01/03 10:07:34;;;;;;;4.10;0.70;;;;;;;12.38;63.61;98747.03;5023834;28;20547;-42
2024/01/03 10:10:00;;;;;;;3.55;1.00;;;;;;;12.49;63.69;98752.91;5035685;28;20030;-43
2024/01/03 10:12:29;;;;;;;1.33;0.60;;;;;;;12.53;63.41;98745.53;5007090;28;20041;-41
2024/01/03 10:14:55;;;;;;;3.17;0.80;;;;;;;12.47;63.15;98740.84;5025537;28;20112;-43
2024/01/03 10:17:21;;;;;;;7.38;2.58;;;;;;;12.54;63.24;98747.19;5022663;28;20121;-41
2024/01/03 10:19:47;;;;;;;7.22;1.13;;;;;;;12.53;63.19;98747.34;5022902;28;20037;-41
2024/01/03 10:22:18;;;;;;;2.58;0.60;;;;;;;12.46;63.01;98752.38;5014356;28;20389;-42
2024/01/03 10:24:44;;;;;;;3.40;0.60;;;;;;;12.52;63.11;98745.66;5020827;28;20083;-41
2024/01/03 10:27:10;;;;;;;3.50;0.60;;;;;;;12.49;63.52;98744.19;5025108;28;20033;-41
2024/01/03 10:29:39;;;;;;;4.70;0.80;;;;;;;12.54;63.54;98741.09;5025941;28;20522;-42
2024/01/03 10:32:09;;;;;;;1.88;0.70;;;;;;;12.55;63.56;98743.59;5027994;28;20433;-41
2024/01/03 10:34:36;;;;;;;2.78;0.88;;;;;;;12.43;63.89;98745.59;5027685;28;20097;-42
2024/01/03 10:37:03;;;;;;;6.30;1.02;;;;;;;12.50;63.86;98746.66;5031324;28;20041;-41
2024/01/03 10:39:30;;;;;;;7.22;2.88;;;;;;;12.47;63.86;98740.84;5007909;28;20029;-42
2024/01/03 10:41:56;;;;;;;3.05;0.73;;;;;;;12.50;63.46;98744.00;5025716;28;20117;-41
2024/01/03 10:44:22;;;;;;;1.65;0.70;;;;;;;12.34;63.57;98747.31;5025466;28;20033;-42
2024/01/03 10:46:49;;;;;;;4.05;0.93;;;;;;;12.44;63.79;98742.00;5021157;28;20091;-41
2024/01/03 10:49:17;;;;;;;4.53;0.90;;;;;;;12.43;63.56;98726.28;5029565;28;20072;-44
2024/01/03 10:51:45;;;;;;;6.13;1.35;;;;;;;12.47;63.62;98731.16;5027841;28;20061;-43
2024/01/03 10:54:15;;;;;;;4.03;1.00;;;;;;;12.42;62.99;98729.91;5027055;28;20031;-46
2024/01/03 10:56:48;;;;;;;4.32;1.33;;;;;;;12.46;62.85;98739.19;5027060;28;20047;-45
2024/01/03 10:59:14;;;;;;;5.18;0.90;;;;;;;12.54;62.85;98741.09;5028203;28;20083;-44
2024/01/03 11:01:46;;;;;;;2.90;0.70;;;;;;;12.61;63.10;98731.59;5019908;28;20037;-45
2024/01/03 11:04:30;;;;;;;2.65;0.80;;;;;;;12.39;62.75;98728.41;5026475;28;20025;-48
2024/01/03 11:07:05;;;;;;;5.57;0.80;;;;;;;12.51;62.50;98729.03;5027672;28;20025;-44
2024/01/03 11:09:31;;;;;;;3.25;0.90;;;;;;;12.59;62.46;98725.63;5032056;28;20033;-46
2024/01/03 11:12:10;;;;;;;7.95;2.63;;;;;;;12.50;62.49;98722.91;5026751;28;20080;-47
2024/01/03 11:14:37;;;;;;;3.20;0.82;;;;;;;12.38;62.47;98718.84;5031916;28;20091;-48
2024/01/03 11:17:03;;;;;;;2.60;0.77;;;;;;;12.58;62.04;98719.50;5036586;28;20117;-47
2024/01/03 11:19:30;;;;;;;5.80;0.95;;;;;;;12.49;61.82;98720.44;5026538;28;20041;-44
2024/01/03 11:22:03;;;;;;;2.13;0.88;;;;;;;12.61;61.61;98724.50;5021406;28;20037;-44
2024/01/03 11:24:28;;;;;;;2.60;0.57;;;;;;;12.73;61.46;98718.97;5026335;28;20626;-43
2024/01/03 11:26:56;;;;;;;2.20;1.05;;;;;;;12.71;61.25;98715.66;5025692;28;20033;-44
2024/01/03 11:29:48;;;;;;;3.72;0.80;;;;;;;12.87;60.97;98702.59;5027931;28;20453;-46